Terminal Aerodrome Forecast
Issued by NWS Sioux Falls, SD

Home | Current Version | Previous Version | Graphics & Text | Print | Product List | Glossary On
Versions: 1 2 3 4 5 6 7 8 9 10 11 12
016
FTUS43 KFSD 270532
TAFHON
TAF
KHON 270532Z 2706/2806 36011KT P6SM OVC015
     FM271500 34012KT P6SM BKN025
     FM271600 34011G17KT P6SM SCT035=

USA.gov is the U.S. government's official web portal to all federal, state and local government web resources and services.